Time;durP1;ratioP1;P1;durP2;ratioP2;P2;SDS_P1;SDS_P2;PMS_P1;PMS_P2;Temp;Humidity;BMP_temperature;BMP_pressure;BME280_temperature;BME280_humidity;BME280_pressure;Samples;Min_cycle;Max_cycle;Signal;HPM_P1;HPM_P2
2020/12/30 00:01:08;;;;;;;;;;;;;;;19.61;61.97;100573.59;5050651;28;1754;-50
2020/12/30 00:03:36;;;;;;;;;;;;;;;19.61;61.78;100584.34;5053313;28;1772;-50
2020/12/30 00:06:02;;;;;;;;;;;;;;;19.60;61.50;100585.34;5053551;28;1671;-50
2020/12/30 00:08:27;;;;;;;;;;;;;;;19.56;61.53;100562.47;5053289;28;1885;-50
2020/12/30 00:10:52;;;;;;;;;;;;;;;19.57;61.52;100590.97;5053336;28;1679;-50
2020/12/30 00:13:18;;;;;;;;;;;;;;;19.53;61.13;100576.16;5053299;28;1657;-50
2020/12/30 00:15:43;;;;;;;;;;;;;;;19.59;61.53;100599.72;5052794;28;1660;-51
2020/12/30 00:18:09;;;;;;;;;;;;;;;19.57;61.38;100609.75;5053215;28;1747;-50
2020/12/30 00:20:34;;;;;;;;;;;;;;;19.53;60.85;100602.97;5053182;28;888;-50
2020/12/30 00:22:59;;;;;;;;;;;;;;;19.54;60.54;100602.84;5053221;28;832;-50
2020/12/30 00:25:26;;;;;;;;;;;;;;;19.51;60.51;100599.59;5053424;28;798;-50
2020/12/30 00:27:51;;;;;;;;;;;;;;;19.52;60.52;100598.59;5052819;28;1999;-50
2020/12/30 00:30:17;;;;;;;;;;;;;;;19.54;60.56;100602.00;5053203;28;1782;-50
2020/12/30 00:32:43;;;;;;;;;;;;;;;19.53;60.69;100601.13;5052933;28;1492;-50
2020/12/30 00:35:09;;;;;;;;;;;;;;;19.53;60.19;100606.50;5053325;28;785;-50
2020/12/30 00:37:35;;;;;;;;;;;;;;;19.53;60.01;100606.50;5054290;28;862;-50
2020/12/30 00:40:00;;;;;;;;;;;;;;;19.51;59.88;100600.44;5057315;28;807;-50
2020/12/30 00:42:32;;;;;;;;;;;;;;;19.51;59.82;100613.00;5057287;28;868;-50
2020/12/30 00:44:58;;;;;;;;;;;;;;;19.45;59.68;100591.13;5057167;28;1738;-50
2020/12/30 00:47:23;;;;;;;;;;;;;;;19.48;59.54;100601.56;5057056;28;1981;-50
2020/12/30 00:49:49;;;;;;;;;;;;;;;19.47;59.39;100607.06;5056855;28;908;-50
2020/12/30 00:52:14;;;;;;;;;;;;;;;19.46;59.18;100592.81;5072111;28;1030;-50
2020/12/30 00:54:39;;;;;;;;;;;;;;;19.45;59.26;100596.47;5056447;28;1514;-50
2020/12/30 00:57:04;;;;;;;;;;;;;;;19.43;59.27;100592.25;5056984;28;781;-50
2020/12/30 00:59:30;;;;;;;;;;;;;;;19.48;59.50;100593.53;5056746;28;1801;-50
2020/12/30 01:01:55;;;;;;;;;;;;;;;19.49;59.35;100602.41;5056595;28;1022;-50
2020/12/30 01:04:20;;;;;;;;;;;;;;;19.46;59.23;100582.09;5056580;28;1767;-50
2020/12/30 01:06:53;;;;;;;;;;;;;;;19.50;59.18;100597.88;5056797;28;1947;-50
2020/12/30 01:09:18;;;;;;;;;;;;;;;19.51;58.99;100586.19;5056733;28;841;-50
2020/12/30 01:11:44;;;;;;;;;;;;;;;19.46;58.96;100587.47;5056956;28;1396;-50
2020/12/30 01:14:10;;;;;;;;;;;;;;;19.50;59.07;100600.56;5056679;28;819;-50
2020/12/30 01:16:35;;;;;;;;;;;;;;;19.47;58.92;100583.78;5056379;28;1218;-50
2020/12/30 01:19:00;;;;;;;;;;;;;;;19.48;58.89;100587.31;5056392;28;1766;-50
2020/12/30 01:21:25;;;;;;;;;;;;;;;19.46;59.04;100570.53;5056058;28;1682;-50
2020/12/30 01:23:50;;;;;;;;;;;;;;;19.43;58.86;100582.38;5056529;28;858;-50
2020/12/30 01:26:16;;;;;;;;;;;;;;;19.46;58.74;100582.09;5056442;28;1953;-50
2020/12/30 01:28:41;;;;;;;;;;;;;;;19.45;58.61;100583.06;5056000;28;1149;-50
2020/12/30 01:31:06;;;;;;;;;;;;;;;19.41;58.64;100581.66;5056392;28;852;-50
2020/12/30 01:33:32;;;;;;;;;;;;;;;19.42;58.57;100569.97;5055806;28;1655;-50
2020/12/30 01:35:57;;;;;;;;;;;;;;;19.41;58.52;100568.25;5055875;28;1752;-50
2020/12/30 01:38:22;;;;;;;;;;;;;;;19.42;58.71;100580.69;5056113;28;1909;-50
2020/12/30 01:40:52;;;;;;;;;;;;;;;19.43;58.42;100568.97;5056271;28;838;-50
2020/12/30 01:43:18;;;;;;;;;;;;;;;19.39;58.38;100570.25;5055856;28;984;-50
2020/12/30 01:45:43;;;;;;;;;;;;;;;19.37;58.38;100566.84;5056072;28;844;-50
2020/12/30 01:48:18;;;;;;;;;;;;;;;19.40;58.25;100576.47;5055207;28;1977;-50
2020/12/30 01:50:44;;;;;;;;;;;;;;;19.39;58.33;100559.50;5052436;28;1371;-50
2020/12/30 01:53:09;;;;;;;;;;;;;;;19.39;58.00;100561.34;5055559;28;1304;-50
2020/12/30 01:55:39;;;;;;;;;;;;;;;19.40;57.84;100571.13;5055151;28;1258;-51
2020/12/30 01:58:05;;;;;;;;;;;;;;;19.41;58.07;100554.84;5054947;28;1408;-50
2020/12/30 02:00:30;;;;;;;;;;;;;;;19.41;58.10;100562.06;5055452;28;1403;-50
2020/12/30 02:02:58;;;;;;;;;;;;;;;19.37;57.91;100557.97;5055357;28;1415;-50
2020/12/30 02:05:24;;;;;;;;;;;;;;;19.42;58.07;100578.00;5055067;28;1423;-50
2020/12/30 02:07:50;;;;;;;;;;;;;;;19.41;57.75;100581.66;5055441;28;1933;-51
2020/12/30 02:10:15;;;;;;;;;;;;;;;19.38;57.70;100555.16;5054408;28;805;-50
2020/12/30 02:12:41;;;;;;;;;;;;;;;19.38;57.76;100568.56;5055345;28;1731;-51
2020/12/30 02:15:06;;;;;;;;;;;;;;;19.38;57.91;100563.19;5055217;28;1179;-50
2020/12/30 02:17:31;;;;;;;;;;;;;;;19.37;57.64;100560.66;5055261;28;895;-50
2020/12/30 02:19:57;;;;;;;;;;;;;;;19.37;57.79;100561.50;5055239;28;850;-50
2020/12/30 02:22:23;;;;;;;;;;;;;;;19.40;57.66;100561.22;5055218;28;881;-50
2020/12/30 02:24:48;;;;;;;;;;;;;;;19.34;57.57;100545.72;5055124;28;861;-50
2020/12/30 02:27:14;;;;;;;;;;;;;;;19.36;57.54;100562.50;5054724;28;1953;-50
2020/12/30 02:29:39;;;;;;;;;;;;;;;19.36;57.71;100549.09;5054761;28;1624;-50
2020/12/30 02:32:04;;;;;;;;;;;;;;;19.36;57.40;100533.00;5055260;28;850;-50
2020/12/30 02:34:29;;;;;;;;;;;;;;;19.39;57.52;100538.06;5044826;28;1670;-51
2020/12/30 02:36:55;;;;;;;;;;;;;;;19.33;57.47;100533.28;5054460;28;1673;-50
2020/12/30 02:39:20;;;;;;;;;;;;;;;19.36;57.61;100540.19;5055095;28;828;-50
2020/12/30 02:41:46;;;;;;;;;;;;;;;19.30;57.41;100530.03;5055062;28;762;-50
2020/12/30 02:44:11;;;;;;;;;;;;;;;19.37;57.20;100540.03;5050023;28;1043;-50
2020/12/30 02:46:36;;;;;;;;;;;;;;;19.31;57.32;100529.91;5034620;28;1910;-50
2020/12/30 02:49:02;;;;;;;;;;;;;;;19.31;57.27;100539.78;5034698;28;851;-50
2020/12/30 02:51:27;;;;;;;;;;;;;;;19.31;57.19;100510.28;5047491;28;1607;-50
2020/12/30 02:53:52;;;;;;;;;;;;;;;19.33;57.06;100527.91;5054824;28;869;-50
2020/12/30 02:56:18;;;;;;;;;;;;;;;19.28;56.90;100524.84;5054485;28;1043;-50
2020/12/30 02:58:44;;;;;;;;;;;;;;;19.31;57.10;100516.50;5054371;28;889;-50
2020/12/30 03:01:10;;;;;;;;;;;;;;;19.33;56.95;100521.72;5053002;28;1039;-50
2020/12/30 03:03:35;;;;;;;;;;;;;;;19.30;56.97;100505.91;5053618;28;861;-50
2020/12/30 03:06:01;;;;;;;;;;;;;;;19.31;57.02;100516.50;5054136;28;1643;-50
2020/12/30 03:08:26;;;;;;;;;;;;;;;19.31;56.35;100512.97;5054200;28;1871;-50
2020/12/30 03:10:51;;;;;;;;;;;;;;;19.32;56.77;100507.47;5068286;23;3560;-57
2020/12/30 03:13:16;;;;;;;;;;;;;;;19.32;56.88;100515.50;5043787;28;856;-58
2020/12/30 03:15:42;;;;;;;;;;;;;;;19.29;56.83;100502.38;5033711;28;850;-58
2020/12/30 03:18:07;;;;;;;;;;;;;;;19.31;56.83;100511.13;5033771;28;809;-63
2020/12/30 03:20:32;;;;;;;;;;;;;;;19.30;56.78;100505.91;5049965;28;1586;-58
2020/12/30 03:22:58;;;;;;;;;;;;;;;19.28;56.46;100504.22;5053416;28;880;-58
2020/12/30 03:25:23;;;;;;;;;;;;;;;19.25;56.85;100492.94;5053398;28;837;-58
2020/12/30 03:27:48;;;;;;;;;;;;;;;19.27;56.58;100497.16;5054231;28;2024;-57
2020/12/30 03:30:14;;;;;;;;;;;;;;;19.24;56.51;100497.47;5055219;28;1553;-58
2020/12/30 03:32:39;;;;;;;;;;;;;;;19.26;56.60;100506.19;5054706;28;1477;-63
2020/12/30 03:35:05;;;;;;;;;;;;;;;19.26;56.62;100494.66;5055267;28;749;-63
2020/12/30 03:37:30;;;;;;;;;;;;;;;19.30;56.53;100493.38;5054788;28;1441;-64
2020/12/30 03:39:56;;;;;;;;;;;;;;;19.28;56.43;100484.63;5051075;28;1450;-63
2020/12/30 03:42:21;;;;;;;;;;;;;;;19.28;56.38;100490.81;5055071;28;761;-58
2020/12/30 03:44:46;;;;;;;;;;;;;;;19.29;56.26;100478.25;5054822;28;817;-57
2020/12/30 03:47:12;;;;;;;;;;;;;;;19.27;56.41;100481.06;5054845;28;1890;-57
2020/12/30 03:49:37;;;;;;;;;;;;;;;19.31;56.66;100480.78;5054945;28;785;-63
2020/12/30 03:52:03;;;;;;;;;;;;;;;19.30;56.96;100477.28;5054492;28;1524;-58
2020/12/30 03:54:31;;;;;;;;;;;;;;;19.34;57.51;100470.63;5054293;28;1121;-57
2020/12/30 03:56:56;;;;;;;;;;;;;;;19.36;58.19;100479.38;5054376;28;1344;-58
2020/12/30 03:59:22;;;;;;;;;;;;;;;19.31;57.53;100462.88;5054655;28;1404;-58
2020/12/30 04:01:47;;;;;;;;;;;;;;;19.17;59.97;100463.31;5063474;28;1596;-57
2020/12/30 04:04:13;;;;;;;;;;;;;;;18.91;61.53;100463.91;5074440;28;1469;-63
2020/12/30 04:06:42;;;;;;;;;;;;;;;18.81;62.51;100460.41;5074916;28;1875;-58
2020/12/30 04:09:07;;;;;;;;;;;;;;;18.72;63.02;100462.09;5072387;28;1361;-58
2020/12/30 04:11:32;;;;;;;;;;;;;;;18.71;63.42;100479.13;5074087;28;1172;-62
2020/12/30 04:13:58;;;;;;;;;;;;;;;18.73;63.70;100470.97;5087997;28;745;-62
2020/12/30 04:16:23;;;;;;;;;;;;;;;18.67;63.83;100461.66;5074233;28;1630;-58
2020/12/30 04:18:49;;;;;;;;;;;;;;;18.69;64.09;100455.16;5074432;28;1595;-57
2020/12/30 04:21:21;;;;;;;;;;;;;;;18.67;63.91;100467.00;5073632;28;1516;-59
2020/12/30 04:23:47;;;;;;;;;;;;;;;18.46;64.66;100459.09;5069957;28;1573;-70
2020/12/30 04:26:13;;;;;;;;;;;;;;;18.38;65.27;100456.25;5074393;28;793;-63
2020/12/30 04:28:38;;;;;;;;;;;;;;;18.30;64.58;100443.56;5073940;28;1902;-63
2020/12/30 04:31:04;;;;;;;;;;;;;;;18.33;65.35;100447.81;5074069;28;1280;-62
2020/12/30 04:33:29;;;;;;;;;;;;;;;18.32;64.71;100448.78;5083874;28;804;-58
2020/12/30 04:35:55;;;;;;;;;;;;;;;18.22;64.72;100448.75;5074537;28;1472;-62
2020/12/30 04:38:20;;;;;;;;;;;;;;;18.29;63.77;100453.44;5073851;28;1225;-60
2020/12/30 04:40:46;;;;;;;;;;;;;;;18.27;64.08;100450.06;5068960;28;11093;-60
2020/12/30 04:43:12;;;;;;;;;;;;;;;18.26;63.88;100453.72;5072346;28;1145;-61
2020/12/30 04:45:38;;;;;;;;;;;;;;;18.24;65.15;100438.78;5073488;28;1375;-59
2020/12/30 04:48:04;;;;;;;;;;;;;;;18.21;65.96;100445.25;5072975;28;1898;-63
2020/12/30 04:50:29;;;;;;;;;;;;;;;18.21;65.31;100449.75;5073635;28;1320;-59
2020/12/30 04:52:55;;;;;;;;;;;;;;;18.17;64.24;100437.66;5073740;28;1345;-63
2020/12/30 04:55:23;;;;;;;;;;;;;;;18.13;62.70;100460.31;5073286;28;1662;-59
2020/12/30 04:57:56;;;;;;;;;;;;;;;18.11;63.12;100457.78;5073792;28;1297;-63
2020/12/30 05:00:22;;;;;;;;;;;;;;;18.06;63.83;100458.19;5071147;28;1227;-59
2020/12/30 05:02:49;;;;;;;;;;;;;;;17.93;62.12;100470.13;5073892;28;1439;-63
2020/12/30 05:05:16;;;;;;;;;;;;;;;17.94;61.75;100458.41;5071671;28;1191;-63
2020/12/30 05:07:42;;;;;;;;;;;;;;;17.92;62.96;100450.53;5073547;28;1901;-59
2020/12/30 05:10:08;;;;;;;;;;;;;;;17.89;62.22;100457.00;5073118;28;1433;-63
2020/12/30 05:12:33;;;;;;;;;;;;;;;17.88;61.97;100466.00;5073543;28;1439;-59
2020/12/30 05:14:58;;;;;;;;;;;;;;;17.85;62.67;100458.25;5073021;28;1329;-62
2020/12/30 05:17:24;;;;;;;;;;;;;;;17.79;61.97;100450.75;5073528;28;1391;-58
2020/12/30 05:19:49;;;;;;;;;;;;;;;17.76;61.79;100453.66;5068393;28;1351;-62
2020/12/30 05:22:23;;;;;;;;;;;;;;;17.71;62.40;100447.91;5073659;28;1385;-62
2020/12/30 05:24:49;;;;;;;;;;;;;;;17.74;62.04;100450.28;5075748;28;1572;-63
2020/12/30 05:27:15;;;;;;;;;;;;;;;17.72;61.51;100460.28;5077285;28;1965;-62
2020/12/30 05:29:45;;;;;;;;;;;;;;;17.68;60.93;100466.88;5076410;28;1220;-58
2020/12/30 05:32:10;;;;;;;;;;;;;;;17.50;61.73;100462.16;5074937;28;1324;-62
2020/12/30 05:34:36;;;;;;;;;;;;;;;17.49;57.75;100462.31;5076470;28;1238;-61
2020/12/30 05:37:01;;;;;;;;;;;;;;;17.56;59.12;100467.94;5076841;28;1303;-58
2020/12/30 05:39:33;;;;;;;;;;;;;;;17.59;61.21;100447.16;5076493;28;1500;-62
2020/12/30 05:42:11;;;;;;;;;;;;;;;17.64;60.71;100452.09;5077011;28;1336;-58
2020/12/30 05:44:37;;;;;;;;;;;;;;;17.62;60.63;100448.69;5075397;28;1400;-62
2020/12/30 05:47:09;;;;;;;;;;;;;;;17.67;59.79;100473.22;5076557;28;1940;-58
2020/12/30 05:49:34;;;;;;;;;;;;;;;17.64;59.56;100466.28;5076711;28;1462;-58
2020/12/30 05:52:09;;;;;;;;;;;;;;;17.63;59.40;100463.78;5076647;28;1370;-58
2020/12/30 05:54:35;;;;;;;;;;;;;;;17.60;60.03;100472.06;5074877;28;1252;-58
2020/12/30 05:57:00;;;;;;;;;;;;;;;17.52;61.27;100458.50;5076715;28;1378;-62
2020/12/30 05:59:28;;;;;;;;;;;;;;;17.47;60.17;100474.94;5072672;28;1418;-58
2020/12/30 06:01:55;;;;;;;;;;;;;;;17.48;60.14;100466.78;5075450;28;1483;-62
2020/12/30 06:04:21;;;;;;;;;;;;;;;17.50;59.45;100466.66;5076682;28;1260;-58
2020/12/30 06:06:47;;;;;;;;;;;;;;;17.53;60.37;100478.91;5075865;28;1898;-58
2020/12/30 06:09:17;;;;;;;;;;;;;;;17.54;59.04;100473.44;5076137;28;1323;-62
2020/12/30 06:12:00;;;;;;;;;;;;;;;17.56;59.17;100475.97;5075311;28;1340;-58
2020/12/30 06:14:26;;;;;;;;;;;;;;;17.58;59.28;100482.88;5075527;28;1695;-62
2020/12/30 06:16:53;;;;;;;;;;;;;;;17.53;60.02;100471.75;5076708;28;804;-58
2020/12/30 06:19:22;;;;;;;;;;;;;;;17.50;59.64;100478.19;5075833;28;1125;-63
2020/12/30 06:21:47;;;;;;;;;;;;;;;17.52;59.48;100470.03;5076605;28;1436;-63
2020/12/30 06:24:15;;;;;;;;;;;;;;;17.45;59.33;100469.72;5065783;28;1284;-62
2020/12/30 06:26:41;;;;;;;;;;;;;;;17.48;59.36;100469.44;5056585;28;1914;-58
2020/12/30 06:29:09;;;;;;;;;;;;;;;17.45;59.62;100475.06;5064749;28;1465;-58
2020/12/30 06:31:41;;;;;;;;;;;;;;;17.49;59.25;100475.66;5069567;28;1696;-63
2020/12/30 06:34:06;;;;;;;;;;;;;;;17.55;57.54;100468.91;5070592;28;10992;-58
2020/12/30 06:36:31;;;;;;;;;;;;;;;17.56;57.31;100470.63;5084542;28;1658;-58
2020/12/30 06:38:57;;;;;;;;;;;;;;;17.79;56.95;100468.63;5065314;28;10761;-58
2020/12/30 06:41:25;;;;;;;;;;;;;;;17.86;57.81;100473.31;5075678;28;1414;-58
2020/12/30 06:43:50;;;;;;;;;;;;;;;17.91;57.22;100475.59;5075649;28;1395;-63
2020/12/30 06:46:36;;;;;;;;;;;;;;;17.94;57.24;100461.09;5075680;28;1248;-63
2020/12/30 06:49:03;;;;;;;;;;;;;;;18.00;58.17;100476.59;5073225;28;1690;-58
2020/12/30 06:51:38;;;;;;;;;;;;;;;17.98;57.73;100473.22;5075420;28;1394;-62
2020/12/30 06:54:04;;;;;;;;;;;;;;;17.98;57.84;100467.88;5075874;28;808;-63
2020/12/30 06:56:48;;;;;;;;;;;;;;;17.98;58.87;100465.19;5075742;28;864;-63
2020/12/30 06:59:17;;;;;;;;;;;;;;;18.03;59.26;100473.66;5091288;28;881;-63
2020/12/30 07:01:53;;;;;;;;;;;;;;;18.04;58.61;100459.28;5075578;28;1486;-58
2020/12/30 07:04:19;;;;;;;;;;;;;;;18.06;58.66;100465.34;5075612;28;1508;-58
2020/12/30 07:06:44;;;;;;;;;;;;;;;18.03;59.86;100462.97;5075245;28;1913;-58
2020/12/30 07:09:12;;;;;;;;;;;;;;;18.07;59.74;100470.56;5075329;28;1393;-59
2020/12/30 07:11:40;;;;;;;;;;;;;;;18.03;59.93;100469.16;5075055;28;1418;-62
2020/12/30 07:14:06;;;;;;;;;;;;;;;18.04;58.89;100470.84;5074669;28;1341;-58
2020/12/30 07:16:35;;;;;;;;;;;;;;;18.06;59.43;100479.59;5071111;28;922;-63
2020/12/30 07:19:01;;;;;;;;;;;;;;;18.09;59.22;100468.59;5073447;28;1453;-58
2020/12/30 07:21:27;;;;;;;;;;;;;;;18.12;60.03;100464.81;5069957;28;1171;-63
2020/12/30 07:23:54;;;;;;;;;;;;;;;18.15;60.05;100469.88;5073578;28;1179;-58
2020/12/30 07:26:20;;;;;;;;;;;;;;;18.14;59.44;100470.84;5064462;28;1154;-63
2020/12/30 07:28:46;;;;;;;;;;;;;;;18.14;59.29;100473.53;5073271;28;1906;-63
2020/12/30 07:31:12;;;;;;;;;;;;;;;18.17;60.27;100473.28;5073794;28;1390;-58
2020/12/30 07:33:38;;;;;;;;;;;;;;;18.23;59.43;100482.59;5073993;28;1218;-64
2020/12/30 07:36:04;;;;;;;;;;;;;;;18.20;59.95;100481.00;5070828;28;1273;-58
2020/12/30 07:38:31;;;;;;;;;;;;;;;18.27;60.10;100492.03;5074207;28;1409;-64
2020/12/30 07:41:04;;;;;;;;;;;;;;;18.27;59.94;100474.13;5072959;28;1386;-58
2020/12/30 07:43:29;;;;;;;;;;;;;;;18.25;59.76;100462.72;5070891;28;1254;-63
2020/12/30 07:46:12;;;;;;;;;;;;;;;18.26;59.72;100477.81;5072970;28;1385;-63
2020/12/30 07:48:38;;;;;;;;;;;;;;;18.26;60.57;100469.78;5073184;28;1953;-63
2020/12/30 07:51:04;;;;;;;;;;;;;;;18.29;59.93;100477.53;5073217;28;786;-58
2020/12/30 07:53:29;;;;;;;;;;;;;;;18.26;60.97;100463.56;5073397;28;889;-58
2020/12/30 07:55:55;;;;;;;;;;;;;;;18.28;60.30;100462.47;5062584;28;1289;-63
2020/12/30 07:58:20;;;;;;;;;;;;;;;18.25;60.20;100468.06;5073045;28;1570;-63
2020/12/30 08:00:46;;;;;;;;;;;;;;;18.31;60.43;100466.69;5073760;28;1510;-58
2020/12/30 08:03:14;;;;;;;;;;;;;;;18.31;61.11;100471.19;5073194;28;1471;-58
2020/12/30 08:05:43;;;;;;;;;;;;;;;18.33;61.00;100462.03;5073652;28;831;-59
2020/12/30 08:08:09;;;;;;;;;;;;;;;18.36;60.20;100468.94;5073452;28;1897;-63
2020/12/30 08:10:34;;;;;;;;;;;;;;;18.40;60.98;100467.69;5073564;28;1141;-58
2020/12/30 08:13:09;;;;;;;;;;;;;;;18.44;60.20;100467.28;5073586;28;1589;-63
2020/12/30 08:15:35;;;;;;;;;;;;;;;18.49;60.13;100474.88;5072399;28;1554;-61
2020/12/30 08:18:00;;;;;;;;;;;;;;;18.51;61.03;100477.44;5072873;28;828;-63
2020/12/30 08:20:25;;;;;;;;;;;;;;;18.51;61.12;100467.56;5073245;28;1051;-58
2020/12/30 08:22:57;;;;;;;;;;;;;;;18.55;60.38;100460.09;5073083;28;1308;-58
2020/12/30 08:25:22;;;;;;;;;;;;;;;18.66;60.17;100466.16;5073412;28;1617;-65
2020/12/30 08:27:48;;;;;;;;;;;;;;;18.94;60.47;100455.63;5072119;28;1905;-64
2020/12/30 08:30:14;;;;;;;;;;;;;;;19.30;60.99;100468.38;5073338;28;1479;-58
2020/12/30 08:32:42;;;;;;;;;;;;;;;19.65;62.08;100459.66;5065906;28;1438;-66
2020/12/30 08:35:10;;;;;;;;;;;;;;;20.01;60.38;100466.00;5073355;28;844;-64
2020/12/30 08:37:37;;;;;;;;;;;;;;;20.12;61.32;100456.91;5073069;28;1527;-58
2020/12/30 08:40:03;;;;;;;;;;;;;;;20.24;60.75;100453.03;5065131;28;1240;-64
2020/12/30 08:42:43;;;;;;;;;;;;;;;20.25;62.01;100465.47;5061499;28;10799;-58
2020/12/30 08:45:12;;;;;;;;;;;;;;;20.21;61.97;100463.22;5059339;28;831;-64
2020/12/30 08:47:38;;;;;;;;;;;;;;;20.20;61.93;100456.16;5035126;28;1910;-64
2020/12/30 08:50:08;;;;;;;;;;;;;;;20.23;60.53;100450.47;5068698;28;1119;-66
2020/12/30 08:52:51;;;;;;;;;;;;;;;20.31;61.58;100461.31;5071090;28;1530;-59
2020/12/30 08:55:17;;;;;;;;;;;;;;;20.28;60.69;100453.56;5069884;28;1245;-64
2020/12/30 08:57:46;;;;;;;;;;;;;;;20.34;60.96;100439.53;5064121;28;1263;-64
2020/12/30 09:00:19;;;;;;;;;;;;;;;20.33;59.94;100439.69;5073435;28;1474;-58
2020/12/30 09:02:45;;;;;;;;;;;;;;;20.40;59.78;100448.84;5071780;28;1528;-64
2020/12/30 09:05:10;;;;;;;;;;;;;;;20.29;60.15;100440.97;5070459;28;1325;-63
2020/12/30 09:07:37;;;;;;;;;;;;;;;20.24;59.94;100447.66;5064726;28;1968;-62
2020/12/30 09:10:06;;;;;;;;;;;;;;;20.17;60.11;100441.19;5072423;28;1247;-65
2020/12/30 09:12:31;;;;;;;;;;;;;;;20.17;59.87;100434.97;5073425;28;1264;-61
2020/12/30 09:14:56;;;;;;;;;;;;;;;20.17;60.58;100441.19;5072358;28;1284;-59
2020/12/30 09:17:22;;;;;;;;;;;;;;;20.21;59.83;100423.81;5071871;28;1175;-62
2020/12/30 09:19:48;;;;;;;;;;;;;;;20.14;59.99;100440.66;5073478;28;1280;-58
2020/12/30 09:22:13;;;;;;;;;;;;;;;20.14;60.21;100421.88;5073153;28;1229;-63
2020/12/30 09:24:39;;;;;;;;;;;;;;;20.13;59.87;100442.50;5072388;28;1083;-62
2020/12/30 09:27:20;;;;;;;;;;;;;;;20.05;60.79;100431.66;5074184;28;1985;-60
2020/12/30 09:30:03;;;;;;;;;;;;;;;20.09;61.81;100421.47;5067147;28;1218;-63
2020/12/30 09:32:29;;;;;;;;;;;;;;;20.17;66.99;100419.72;5072268;28;1423;-59
2020/12/30 09:34:58;;;;;;;;;;;;;;;20.09;70.78;100422.31;5073145;28;1363;-62
2020/12/30 09:37:23;;;;;;;;;;;;;;;20.05;69.15;100410.19;5072961;28;1241;-58
2020/12/30 09:40:00;;;;;;;;;;;;;;;19.96;69.28;100416.47;5072708;28;1401;-62
2020/12/30 09:42:26;;;;;;;;;;;;;;;19.92;69.16;100423.97;5055401;28;1542;-59
2020/12/30 09:44:51;;;;;;;;;;;;;;;19.83;68.68;100420.34;5058546;28;1245;-59
2020/12/30 09:47:16;;;;;;;;;;;;;;;19.78;68.80;100419.97;5070755;28;1909;-68
2020/12/30 09:49:42;;;;;;;;;;;;;;;19.81;67.73;100414.28;5073952;28;1507;-68
2020/12/30 09:52:07;;;;;;;;;;;;;;;19.75;68.52;100406.81;5074258;28;830;-59
2020/12/30 09:54:33;;;;;;;;;;;;;;;19.74;67.89;100397.09;5066876;28;1204;-63
2020/12/30 09:56:58;;;;;;;;;;;;;;;19.71;68.90;100392.03;5069413;28;1028;-59
2020/12/30 09:59:23;;;;;;;;;;;;;;;19.77;68.96;100391.44;5072258;28;1590;-59
2020/12/30 10:01:49;;;;;;;;;;;;;;;19.73;68.39;100376.63;5073269;28;1484;-65
2020/12/30 10:04:14;;;;;;;;;;;;;;;19.71;68.58;100375.94;5072385;28;1214;-63
2020/12/30 10:06:40;;;;;;;;;;;;;;;19.71;68.55;100375.06;5072238;28;1958;-64
2020/12/30 10:09:05;;;;;;;;;;;;;;;19.66;69.20;100360.25;5071343;28;1493;-59
2020/12/30 10:11:30;;;;;;;;;;;;;;;19.64;69.66;100345.31;5071525;28;1256;-59
2020/12/30 10:13:56;;;;;;;;;;;;;;;19.63;69.92;100357.03;5068977;28;1397;-59
2020/12/30 10:16:21;;;;;;;;;;;;;;;19.60;69.39;100363.53;5072917;28;1271;-59
2020/12/30 10:18:46;;;;;;;;;;;;;;;19.59;69.68;100361.84;5072956;28;1131;-65
2020/12/30 10:21:12;;;;;;;;;;;;;;;19.55;69.53;100367.66;5075791;28;1615;-65
2020/12/30 10:23:37;;;;;;;;;;;;;;;19.63;69.84;100373.97;5073580;28;1337;-58
2020/12/30 10:26:02;;;;;;;;;;;;;;;19.69;69.66;100367.16;5069869;28;1603;-64
2020/12/30 10:28:28;;;;;;;;;;;;;;;19.67;69.99;100361.09;5072187;28;1913;-59
2020/12/30 10:30:53;;;;;;;;;;;;;;;19.64;69.82;100361.41;5062961;28;1169;-58
2020/12/30 10:33:19;;;;;;;;;;;;;;;19.59;70.40;100377.09;5070953;28;1123;-63
2020/12/30 10:35:44;;;;;;;;;;;;;;;19.51;70.56;100355.53;5065837;28;1375;-58
2020/12/30 10:38:09;;;;;;;;;;;;;;;19.52;70.60;100371.50;5053175;28;804;-64
2020/12/30 10:40:35;;;;;;;;;;;;;;;19.55;70.47;100359.63;5062713;28;1649;-60
2020/12/30 10:43:03;;;;;;;;;;;;;;;19.50;70.31;100364.56;5074558;28;1338;-60
2020/12/30 10:45:29;;;;;;;;;;;;;;;19.48;70.46;100351.34;5070609;28;1302;-59
2020/12/30 10:47:54;;;;;;;;;;;;;;;19.47;70.11;100352.31;5069997;28;1894;-59
2020/12/30 10:50:19;;;;;;;;;;;;;;;19.48;70.21;100345.97;5080877;28;1408;-60
2020/12/30 10:52:45;;;;;;;;;;;;;;;19.49;69.74;100347.63;5072165;28;2288;-60
2020/12/30 10:55:10;;;;;;;;;;;;;;;19.45;70.22;100348.94;5075258;28;1697;-60
2020/12/30 10:57:36;;;;;;;;;;;;;;;19.44;70.25;100348.09;5074609;28;849;-60
2020/12/30 11:00:02;;;;;;;;;;;;;;;19.44;70.38;100345.41;5075169;28;820;-60
2020/12/30 11:02:27;;;;;;;;;;;;;;;19.38;70.19;100332.59;5074509;28;1472;-60
2020/12/30 11:04:53;;;;;;;;;;;;;;;19.40;70.73;100332.47;5075554;28;1425;-60
2020/12/30 11:07:18;;;;;;;;;;;;;;;19.38;70.69;100316.50;5074484;28;1969;-59
2020/12/30 11:09:44;;;;;;;;;;;;;;;19.35;70.73;100327.53;5073998;28;1616;-60
2020/12/30 11:12:09;;;;;;;;;;;;;;;19.38;70.95;100337.97;5073864;28;1441;-60
2020/12/30 11:14:34;;;;;;;;;;;;;;;19.33;70.90;100317.94;5075194;28;1674;-60
2020/12/30 11:17:00;;;;;;;;;;;;;;;19.33;72.36;100334.03;5091372;28;1651;-59
2020/12/30 11:19:25;;;;;;;;;;;;;;;19.35;72.75;100332.88;5075426;28;1608;-60
2020/12/30 11:21:51;;;;;;;;;;;;;;;19.35;72.61;100324.84;5075295;28;828;-59
2020/12/30 11:24:17;;;;;;;;;;;;;;;19.29;72.75;100312.03;5075398;28;1623;-59
2020/12/30 11:26:46;;;;;;;;;;;;;;;19.31;71.89;100311.91;5083531;28;1913;-60
2020/12/30 11:29:11;;;;;;;;;;;;;;;19.40;70.55;100308.34;5074176;28;1607;-60
2020/12/30 11:31:37;;;;;;;;;;;;;;;19.31;71.01;100301.16;5075783;28;1738;-59
2020/12/30 11:34:02;;;;;;;;;;;;;;;19.33;70.94;100309.91;5075518;28;1413;-60
2020/12/30 11:36:28;;;;;;;;;;;;;;;19.33;71.08;100308.06;5093502;28;1591;-61
2020/12/30 11:38:53;;;;;;;;;;;;;;;19.37;70.75;100303.25;5076606;28;1805;-60
2020/12/30 11:41:19;;;;;;;;;;;;;;;19.32;70.94;100301.03;5075187;28;785;-60
2020/12/30 11:43:44;;;;;;;;;;;;;;;19.32;71.05;100298.34;5074658;28;1533;-60
2020/12/30 11:46:13;;;;;;;;;;;;;;;19.31;71.03;100314.56;5074838;28;797;-60
2020/12/30 11:48:38;;;;;;;;;;;;;;;19.31;71.01;100314.56;5074773;28;2015;-60
2020/12/30 11:51:04;;;;;;;;;;;;;;;19.28;70.64;100302.31;5074185;28;1195;-60
2020/12/30 11:53:29;;;;;;;;;;;;;;;19.28;70.79;100299.63;5065234;28;1294;-60
2020/12/30 11:55:54;;;;;;;;;;;;;;;19.24;70.63;100304.44;5071940;28;1245;-60
2020/12/30 11:58:20;;;;;;;;;;;;;;;19.24;70.71;100298.25;5074164;28;1422;-60
2020/12/30 12:00:45;;;;;;;;;;;;;;;19.21;70.40;100299.38;5074470;28;1360;-61
2020/12/30 12:03:10;;;;;;;;;;;;;;;19.19;70.53;100285.28;5073898;28;1329;-60
2020/12/30 12:05:36;;;;;;;;;;;;;;;19.22;70.71;100297.56;5072062;28;1284;-61
2020/12/30 12:08:01;;;;;;;;;;;;;;;19.23;70.57;100309.94;5072438;28;1897;-61
2020/12/30 12:10:26;;;;;;;;;;;;;;;19.17;70.47;100295.28;5073753;28;1187;-61
2020/12/30 12:12:51;;;;;;;;;;;;;;;19.20;70.46;100299.50;5072183;28;1535;-60
2020/12/30 12:15:17;;;;;;;;;;;;;;;19.18;70.32;100301.50;5073300;28;1293;-61
2020/12/30 12:17:42;;;;;;;;;;;;;;;19.13;70.30;100306.47;5074222;28;1253;-61
2020/12/30 12:20:08;;;;;;;;;;;;;;;19.15;70.61;100313.38;5074073;28;1305;-61
2020/12/30 12:22:33;;;;;;;;;;;;;;;19.12;70.43;100294.03;5073583;28;1519;-61
2020/12/30 12:24:58;;;;;;;;;;;;;;;19.05;70.49;100294.63;5074325;28;1254;-61
2020/12/30 12:27:24;;;;;;;;;;;;;;;19.05;70.53;100302.69;5072460;28;1918;-60
2020/12/30 12:29:50;;;;;;;;;;;;;;;19.05;70.56;100312.56;5073816;28;1266;-61
2020/12/30 12:32:16;;;;;;;;;;;;;;;19.03;70.47;100299.31;5072973;28;1443;-60
2020/12/30 12:34:43;;;;;;;;;;;;;;;19.08;70.57;100313.13;5077046;28;1477;-61
2020/12/30 12:37:09;;;;;;;;;;;;;;;19.08;71.00;100294.38;5078327;28;1504;-60
2020/12/30 12:39:35;;;;;;;;;;;;;;;19.06;70.72;100292.84;5077005;28;1243;-60
2020/12/30 12:42:01;;;;;;;;;;;;;;;19.07;70.65;100311.41;5075308;28;1124;-60
2020/12/30 12:44:28;;;;;;;;;;;;;;;19.05;70.49;100307.22;5077236;28;1404;-60